Terminal Aerodrome Forecast
Issued by NWS Bismarck, ND

Home | Current Version | Previous Version | Text Only | Print | Product List | Glossary Off
Versions: 1 2 3 4 5 6 7 8 9 10 11 12 13 14 15 16 17 18 19 20 21 22 23 24 25 26 27 28 29 30 31

995
FTUS43 KBIS 250539
TAFISN
TAF
KISN 250539Z 2506/2606 22003KT P6SM -SN FEW020 BKN060
      TEMPO 2506/2508 3SM -SN BKN020
     FM250800 23004KT 2SM -SN OVC010
     FM251000 30004KT 6SM -SN SCT010 OVC030
     FM251300 34005KT P6SM BKN010
     FM252000 20006KT P6SM VCSH OVC010
     FM260000 33009KT 2SM -SN OVC008
     FM260300 02007KT P6SM BKN040=

USA.gov is the U.S. government's official web portal to all federal, state and local government web resources and services.